CheckWX is a tool to help pilots better visualize weather data.  It is not intended as a substitute for an official pre-flight weather briefing.

04:34:28 UTC

EHMA METAR
Awg-1 Sea
Awg-1 Sea, The Netherlands
Current

39 mins ago

EHMA 250355Z AUTO 17018KT 9999 FEW047 11/09 Q1004 W///H///
Observed
Apr-25 @ 03:55 UTC
Wind
  • 170° at 18 KTS
Visibility
10,000+ meters
Flight Rules
VFR
Cloud Levels
  • Few at 4,700' AGL
Temperature
11°C / 52°F
Dewpoint
C / 48°F
Humidity
88%
Altimeter
29.65" Hg
Pressure
1003.92 hPa
Previous

1 hour ago

EHMA 250325Z AUTO 18020KT 9999 BKN047 11/09 Q1004 W///H///
Observed
Apr-25 @ 03:25 UTC
Wind
  • 180° at 20 KTS
Visibility
10,000+ meters
Flight Rules
VFR
Cloud Levels
  • Broken at 4,700' AGL
Temperature
11°C / 52°F
Dewpoint
C / 48°F
Humidity
88%
Altimeter
29.65" Hg
Pressure
1003.92 hPa
Previous

2 hours ago

EHMA 250255Z AUTO 18019KT 9999 FEW008 BKN049 11/09 Q1004 W///H///
Observed
Apr-25 @ 02:55 UTC
Wind
  • 180° at 19 KTS
Visibility
10,000+ meters
Flight Rules
VFR
Cloud Levels
  • Few at 800' AGL
  • Broken at 4,900' AGL
Temperature
11°C / 52°F
Dewpoint
C / 48°F
Humidity
88%
Altimeter
29.65" Hg
Pressure
1003.92 hPa